Ashton, MD

6:23 PM EDT on March 29, 2015 (GMT -0400)
Hampshire Greens | | Change Station
CLOSE
Current Station
Personal Weather Station
Location: Silver Spring, MD
Elevation: 472 ft
Nearby Weather Stations

Elev 472 ft 39.13 °N, 77.00 °W | Updated 30 seconds ago

Clear
Clear
44.1 °F
Feels Like 44 °F
N
2.9
Wind Variable Wind from SW
Gusts 8.9 mph

Today
High -- | Low -- °F
--% Chance of Precip.
Yesterday
High -- | Low -- °F
Precip. -- in
6:57 AM 7:28 PM
Waxing Gibbous, 74% visible
Pressure 30.24 in
Visibility 10.0 miles
Clouds Clear
Windchill 44 °F
Dew Point 4 °F
Humidity 19%
Rainfall 0.00 in
Snow Depth Not available.
UV 1 out of 12
Pollen 7.70 out of 12
Air Quality Not available.
Flu Activity Not available.
METAR KGAI 292215Z AUTO 21003KT 10SM CLR 06/M15 A3024 RMK AO1

More Conditions Fewer Conditions

Pressure 30.24 in
Visibility 10.0 miles
Clouds Clear
Windchill 44 °F
Dew Point 4 °F
Humidity 19%
Rainfall 0.00 in
Snow Depth Not available.
UV 1 out of 12
Pollen 7.70 out of 12
Air Quality Not available.
Flu Activity Not available.
METAR KGAI 292215Z AUTO 21003KT 10SM CLR 06/M15 A3024 RMK AO1

More Conditions Fewer Conditions

10-Day Weather Forecast

Almanac

Astronomy

Mar. 29, 2015 Rise Set
Actual Time
Civil Twilight
Nautical Twilight
Astronomical Twilight
Moon
Length of Visible Light
Length of Day
Tomorrow will be .
, % of the Moon is Illuminated

Today's Extremes

State Highs State Lows

Community

WunderPhotos

Upload Photos

1,809,372 photos uploaded!

WunderBlogs® & News

Nearby

Air Quality

  Air Quality AQ Index Pollutant
Not available.

Snow Depth

Station Depth Elevation

Earthquake Activity

City Distance Mag. Time & Date
Minimum magnitude displayed is 2.5.

Coastal Water Temperatures

Place Temperature

Stations

Nearby Weather Stations

Station Location Temp. Windchill Dew Point Humidity Wind Precip. Elev Updated Type